Time;durP1;ratioP1;P1;durP2;ratioP2;P2;SDS_P1;SDS_P2;PMS_P1;PMS_P2;Temp;Humidity;BMP_temperature;BMP_pressure;BME280_temperature;BME280_humidity;BME280_pressure;Samples;Min_cycle;Max_cycle;Signal;HPM_P1;HPM_P2
2023/01/06 00:05:23;;;;;;;9.13;2.87;;;;;;;4.70;100.00;99284.26;3977611;88;21469;-89
2023/01/06 00:11:24;;;;;;;7.20;3.00;;;;;;;4.69;100.00;99287.30;3979518;88;21084;-89
2023/01/06 00:17:26;;;;;;;5.95;3.30;;;;;;;4.65;99.88;99293.16;4057431;86;21003;-90
2023/01/06 00:23:27;;;;;;;4.92;3.10;;;;;;;4.63;99.75;99296.75;4067542;86;21514;-90
2023/01/06 00:29:29;;;;;;;7.53;2.92;;;;;;;4.60;99.63;99300.13;4048933;86;21044;-89
2023/01/06 00:35:30;;;;;;;5.95;3.00;;;;;;;4.57;99.46;99312.40;3984790;87;21040;-89
2023/01/06 00:47:51;;;;;;;4.70;2.22;;;;;;;4.55;99.22;99317.38;3981009;87;21043;-87
2023/01/06 00:53:53;;;;;;;5.03;2.33;;;;;;;4.53;98.97;99331.01;3982492;87;21165;-89
2023/01/06 00:59:54;;;;;;;5.62;2.52;;;;;;;4.52;98.92;99333.50;3980384;87;21080;-89
2023/01/06 01:06:02;;;;;;;6.85;2.62;;;;;;;4.48;98.97;99349.61;3983339;87;21915;-90
2023/01/06 01:12:13;;;;;;;7.72;2.65;;;;;;;4.49;99.03;99359.36;3985429;87;21039;-90
2023/01/06 01:18:15;;;;;;;5.22;2.40;;;;;;;4.49;98.93;99370.20;3987395;87;21001;-89
2023/01/06 01:24:17;;;;;;;6.15;2.30;;;;;;;4.47;98.75;99382.47;3987188;87;21025;-88
2023/01/06 01:30:20;;;;;;;6.33;2.65;;;;;;;4.46;98.55;99387.09;3979115;87;20999;-89
2023/01/06 01:36:22;;;;;;;5.08;2.37;;;;;;;4.43;98.62;99388.32;3955291;89;21083;-89
2023/01/06 01:42:23;;;;;;;4.85;1.80;;;;;;;4.33;98.27;99388.11;3955493;89;21606;-89
2023/01/06 01:48:34;;;;;;;5.17;2.37;;;;;;;4.27;98.42;99392.13;3933584;89;21614;-90
2023/01/06 01:54:36;;;;;;;6.92;2.25;;;;;;;4.22;98.61;99395.55;3941465;88;21956;-89
2023/01/06 02:00:41;;;;;;;6.65;2.55;;;;;;;4.18;98.84;99398.69;3943422;88;21936;-88
2023/01/06 02:06:45;;;;;;;6.87;2.47;;;;;;;4.18;98.90;99410.88;3948305;89;21042;-90
2023/01/06 02:12:50;;;;;;;6.95;2.67;;;;;;;4.15;98.83;99411.52;3954699;87;21097;-89
2023/01/06 02:19:43;;;;;;;5.80;2.10;;;;;;;4.13;98.68;99421.33;3943619;89;21117;-89
2023/01/06 02:26:08;;;;;;;4.78;2.20;;;;;;;4.12;98.67;99439.27;3938903;88;21054;-89
2023/01/06 02:32:33;;;;;;;4.67;1.60;;;;;;;4.06;98.69;99443.23;3992815;87;21048;-90
2023/01/06 02:38:52;;;;;;;5.60;1.55;;;;;;;3.99;98.50;99441.04;3976715;87;21099;-88
2023/01/06 02:45:23;;;;;;;5.10;2.10;;;;;;;3.93;98.18;99451.77;3918697;89;21162;-89
2023/01/06 02:51:32;;;;;;;5.72;1.92;;;;;;;3.87;98.31;99450.34;3879357;89;21060;-89
2023/01/06 02:58:09;;;;;;;4.45;2.00;;;;;;;3.84;98.29;99454.25;3976992;87;21114;-89
2023/01/06 03:04:19;;;;;;;5.22;2.45;;;;;;;3.80;98.36;99467.66;3984192;87;21110;-89
2023/01/06 03:10:25;;;;;;;5.35;2.25;;;;;;;3.75;98.39;99469.16;3986879;87;20997;-89
2023/01/06 03:16:26;;;;;;;4.78;2.25;;;;;;;3.72;98.45;99477.92;3989716;86;21004;-89
2023/01/06 03:22:29;;;;;;;5.70;2.30;;;;;;;3.70;98.60;99484.20;3986070;87;22042;-88
2023/01/06 03:28:31;;;;;;;7.58;2.80;;;;;;;3.70;98.68;99471.21;4000144;87;21023;-88
2023/01/06 03:34:41;;;;;;;7.15;2.70;;;;;;;3.69;98.86;99462.86;4038507;87;21027;-89
2023/01/06 03:41:06;;;;;;;7.80;2.20;;;;;;;3.66;98.96;99475.14;4037600;86;21028;-87
2023/01/06 03:47:19;;;;;;;7.05;2.50;;;;;;;3.65;99.09;99471.39;4038753;87;21092;-89
2023/01/06 03:54:01;;;;;;;6.45;2.62;;;;;;;3.62;98.78;99475.52;4035968;87;20992;-90
2023/01/06 04:00:11;;;;;;;7.35;2.67;;;;;;;3.61;98.69;99470.42;4041362;87;21015;-87
2023/01/06 04:06:18;;;;;;;6.17;2.45;;;;;;;3.59;98.83;99482.92;3943204;88;20996;-89
2023/01/06 04:12:37;;;;;;;7.72;2.60;;;;;;;3.58;98.85;99490.81;3927151;89;21985;-89
2023/01/06 04:18:39;;;;;;;3.70;2.45;;;;;;;3.57;99.09;99495.97;4042679;86;21076;-89
2023/01/06 04:24:41;;;;;;;7.75;3.10;;;;;;;3.56;99.14;99502.50;4047970;86;22266;-89
2023/01/06 04:30:42;;;;;;;7.22;3.17;;;;;;;3.57;99.17;99514.14;4018665;86;21088;-88
2023/01/06 04:36:44;;;;;;;8.60;3.52;;;;;;;3.55;99.36;99512.30;4000384;86;21047;-89
2023/01/06 04:43:04;;;;;;;7.40;3.10;;;;;;;3.54;99.38;99510.71;4001243;86;21077;-90
2023/01/06 04:49:05;;;;;;;9.33;3.55;;;;;;;3.51;99.42;99521.59;3988680;87;21038;-89
2023/01/06 04:55:08;;;;;;;7.03;3.35;;;;;;;3.50;99.40;99520.02;3995361;87;21656;-90
2023/01/06 05:01:11;;;;;;;7.33;3.30;;;;;;;3.46;99.60;99529.86;3990609;87;21063;-89
2023/01/06 05:07:13;;;;;;;6.85;3.30;;;;;;;3.43;99.71;99529.14;4013341;86;21051;-88
2023/01/06 05:13:14;;;;;;;10.03;3.80;;;;;;;3.40;99.76;99544.66;4007971;86;21000;-88
2023/01/06 05:19:15;;;;;;;6.60;3.00;;;;;;;3.39;99.91;99552.55;3989712;87;21643;-88
2023/01/06 05:25:17;;;;;;;11.93;3.87;;;;;;;3.41;99.79;99551.69;3994010;87;21917;-89
2023/01/06 05:31:18;;;;;;;6.97;3.70;;;;;;;3.41;99.83;99549.52;3994148;87;20993;-90
2023/01/06 05:37:20;;;;;;;6.20;3.72;;;;;;;3.40;99.84;99553.35;3994907;87;21063;-88
2023/01/06 05:43:21;;;;;;;8.58;4.47;;;;;;;3.40;100.00;99562.25;3993208;87;21095;-89
2023/01/06 05:49:28;;;;;;;8.95;4.35;;;;;;;3.36;100.00;99552.37;4005346;86;21925;-91
2023/01/06 05:55:30;;;;;;;5.75;3.67;;;;;;;3.31;100.00;99550.61;3992881;87;21095;-89
2023/01/06 06:01:31;;;;;;;8.53;4.00;;;;;;;3.23;99.94;99560.30;4009133;86;21440;-89
2023/01/06 06:07:33;;;;;;;7.20;4.45;;;;;;;3.09;99.79;99556.09;4032300;86;21512;-89
2023/01/06 06:13:35;;;;;;;11.90;4.40;;;;;;;2.95;99.72;99564.86;4008903;86;21049;-90
2023/01/06 06:19:36;;;;;;;8.93;5.97;;;;;;;2.86;99.93;99568.08;4022843;86;21731;-87
2023/01/06 06:25:37;;;;;;;5.95;4.10;;;;;;;2.77;99.95;99578.06;4035163;86;21052;-89
2023/01/06 06:31:39;;;;;;;9.88;4.33;;;;;;;2.67;100.00;99576.95;4043287;86;21021;-90
2023/01/06 06:37:40;;;;;;;12.10;5.87;;;;;;;2.54;99.90;99588.63;4048035;85;21053;-88
2023/01/06 06:43:42;;;;;;;11.85;5.95;;;;;;;2.40;99.88;99596.00;3977625;87;21085;-89
2023/01/06 06:49:44;;;;;;;11.38;5.87;;;;;;;2.29;100.00;99610.84;3972081;88;21011;-89
2023/01/06 06:55:45;;;;;;;13.48;5.67;;;;;;;2.25;100.00;99614.73;3981359;87;21067;-88
2023/01/06 07:01:47;;;;;;;6.92;4.92;;;;;;;2.26;100.00;99614.97;3975444;88;21190;-90
2023/01/06 07:07:48;;;;;;;10.32;5.80;;;;;;;2.35;100.00;99615.83;4047861;86;21142;-90
2023/01/06 07:13:50;;;;;;;13.18;6.75;;;;;;;2.42;100.00;99620.27;4071919;86;21091;-89
2023/01/06 07:19:51;;;;;;;10.25;6.28;;;;;;;2.47;100.00;99624.22;4070676;85;21053;-91
2023/01/06 07:25:55;;;;;;;12.13;7.12;;;;;;;2.57;100.00;99634.77;4076309;86;21000;-90
2023/01/06 07:31:57;;;;;;;8.48;5.90;;;;;;;2.68;100.00;99642.87;4074966;86;21079;-89
2023/01/06 07:38:06;;;;;;;9.63;5.00;;;;;;;2.75;100.00;99650.02;4073051;86;20999;-90
2023/01/06 07:44:07;;;;;;;7.67;5.53;;;;;;;2.83;100.00;99653.88;4074785;86;21034;-91
2023/01/06 07:50:08;;;;;;;10.43;5.90;;;;;;;2.90;100.00;99654.23;4074636;86;21502;-90
2023/01/06 07:56:10;;;;;;;9.90;5.80;;;;;;;2.96;100.00;99653.02;4066443;86;21003;-89
2023/01/06 08:02:12;;;;;;;9.20;5.45;;;;;;;3.02;100.00;99645.02;4070650;85;21035;-89
2023/01/06 08:08:13;;;;;;;8.75;5.42;;;;;;;3.12;100.00;99645.55;4072838;86;21106;-88
2023/01/06 08:14:15;;;;;;;9.25;6.28;;;;;;;3.22;100.00;99655.30;4072192;86;21033;-90
2023/01/06 08:20:16;;;;;;;7.97;5.20;;;;;;;3.30;100.00;99664.57;4072237;86;21570;-88
2023/01/06 08:26:17;;;;;;;12.88;6.92;;;;;;;3.40;100.00;99677.84;3987567;87;21115;-89
2023/01/06 08:32:19;;;;;;;15.30;7.47;;;;;;;3.49;100.00;99678.13;3972180;88;21094;-88
2023/01/06 08:38:20;;;;;;;11.75;7.75;;;;;;;3.61;100.00;99669.41;3940925;88;21070;-89
2023/01/06 08:44:21;;;;;;;9.18;6.40;;;;;;;3.71;100.00;99673.97;3855121;90;21586;-89
2023/01/06 08:50:23;;;;;;;10.10;6.15;;;;;;;3.84;99.77;99685.26;3892085;90;21023;-88
2023/01/06 08:56:30;;;;;;;9.35;5.55;;;;;;;3.90;99.54;99679.94;3868971;90;21041;-88
2023/01/06 09:02:31;;;;;;;10.40;5.70;;;;;;;3.90;99.27;99675.88;3933702;89;21070;-89
2023/01/06 09:08:33;;;;;;;8.75;5.50;;;;;;;3.98;98.99;99684.58;3932584;89;22046;-90
2023/01/06 09:14:34;;;;;;;9.90;4.87;;;;;;;4.01;98.54;99685.30;3932780;89;21104;-90
2023/01/06 09:20:36;;;;;;;6.80;4.45;;;;;;;4.14;98.72;99689.00;3993268;87;21344;-91
2023/01/06 09:26:38;;;;;;;6.00;4.25;;;;;;;4.23;98.54;99688.45;3999876;87;21091;-89
2023/01/06 09:32:39;;;;;;;6.55;4.05;;;;;;;4.32;98.08;99683.87;4002439;87;21759;-89
2023/01/06 09:38:40;;;;;;;6.17;3.10;;;;;;;4.33;97.62;99682.19;4006220;87;21067;-89
2023/01/06 09:44:56;;;;;;;3.47;2.98;;;;;;;4.37;97.45;99677.72;4012604;87;21039;-89
2023/01/06 09:51:01;;;;;;;2.98;2.65;;;;;;;4.40;96.89;99672.23;4010648;86;21021;-90
2023/01/06 09:57:14;;;;;;;5.53;3.58;;;;;;;4.36;96.36;99657.70;4010241;86;20988;-89
2023/01/06 10:03:19;;;;;;;6.60;3.90;;;;;;;4.30;96.23;99641.37;4007440;87;21047;-89
2023/01/06 10:09:35;;;;;;;9.08;4.22;;;;;;;4.29;96.30;99632.43;4014213;87;21040;-89
2023/01/06 10:15:45;;;;;;;6.58;3.77;;;;;;;4.29;96.19;99611.33;4008756;87;21687;-89
2023/01/06 10:22:09;;;;;;;8.33;3.58;;;;;;;4.37;96.25;99616.73;4012365;86;21519;-89
2023/01/06 10:28:28;;;;;;;9.55;4.87;;;;;;;4.44;95.98;99610.83;4011386;87;21029;-89
2023/01/06 10:34:33;;;;;;;7.12;4.50;;;;;;;4.50;95.54;99602.77;4056195;86;21560;-90
2023/01/06 10:40:35;;;;;;;11.18;5.47;;;;;;;4.60;95.41;99588.91;4039282;86;21668;-90
2023/01/06 10:46:37;;;;;;;9.65;4.67;;;;;;;4.60;95.53;99579.41;4035904;87;22223;-89
2023/01/06 10:52:39;;;;;;;12.00;6.17;;;;;;;4.66;95.22;99574.86;4040096;87;21935;-89
2023/01/06 10:58:55;;;;;;;10.18;6.70;;;;;;;4.72;94.89;99574.11;4044365;87;21024;-90
2023/01/06 11:05:00;;;;;;;8.53;5.65;;;;;;;4.74;94.69;99577.31;4039795;86;21497;-90
2023/01/06 11:11:03;;;;;;;10.70;6.20;;;;;;;4.68;94.88;99563.69;4039473;87;21001;-89
2023/01/06 11:17:10;;;;;;;10.18;5.90;;;;;;;4.78;94.80;99568.20;4039990;87;22030;-90
2023/01/06 11:23:19;;;;;;;12.03;6.42;;;;;;;4.88;94.99;99564.91;4036991;87;21032;-89
2023/01/06 11:29:26;;;;;;;10.85;7.10;;;;;;;5.01;94.71;99554.41;4038470;87;21083;-89
2023/01/06 11:35:32;;;;;;;12.75;6.15;;;;;;;4.97;94.06;99551.55;4078893;86;21025;-90
2023/01/06 11:41:39;;;;;;;12.45;6.20;;;;;;;5.08;94.72;99542.48;4072983;86;21075;-90
2023/01/06 11:47:43;;;;;;;10.65;6.75;;;;;;;5.22;94.29;99547.12;4055585;86;21090;-90
2023/01/06 11:53:56;;;;;;;10.43;6.67;;;;;;;5.23;93.50;99543.31;4068591;86;21020;-90
2023/01/06 12:00:34;;;;;;;11.85;7.60;;;;;;;5.29;93.72;99552.86;4067740;86;21070;-89
2023/01/06 12:06:41;;;;;;;9.00;5.72;;;;;;;5.40;93.80;99552.73;4077978;86;21978;-90
2023/01/06 12:12:43;;;;;;;9.40;5.78;;;;;;;5.55;93.71;99542.10;4082548;85;20999;-90
2023/01/06 12:18:45;;;;;;;10.75;6.78;;;;;;;5.75;93.85;99534.54;4074592;86;21552;-90
2023/01/06 12:24:48;;;;;;;9.98;6.28;;;;;;;5.92;93.72;99529.02;4052621;86;21033;-89
2023/01/06 12:31:21;;;;;;;10.78;6.53;;;;;;;5.96;92.84;99517.73;4072848;86;21003;-90
2023/01/06 12:37:43;;;;;;;11.60;6.85;;;;;;;5.99;92.92;99499.39;4069204;86;21501;-90
2023/01/06 12:43:56;;;;;;;12.88;5.42;;;;;;;6.03;92.66;99485.36;3991607;87;21083;-90
2023/01/06 12:50:18;;;;;;;9.20;5.60;;;;;;;6.07;92.66;99480.06;3925182;89;21097;-90
2023/01/06 12:56:40;;;;;;;11.57;5.40;;;;;;;6.17;92.21;99470.92;3978269;88;21095;-91
2023/01/06 13:03:21;;;;;;;9.78;5.12;;;;;;;6.25;92.16;99476.84;3989763;87;21156;-90
2023/01/06 13:09:46;;;;;;;10.30;6.12;;;;;;;6.35;91.78;99464.20;3970590;88;20967;-90
2023/01/06 13:15:49;;;;;;;11.73;6.35;;;;;;;6.39;91.47;99467.83;3980718;88;21150;-90
2023/01/06 13:21:53;;;;;;;10.45;5.22;;;;;;;6.34;90.86;99446.86;3976052;87;21926;-89
2023/01/06 13:28:21;;;;;;;8.53;5.42;;;;;;;6.18;91.03;99443.19;4047864;86;21115;-89
2023/01/06 13:34:40;;;;;;;10.88;5.90;;;;;;;6.15;90.99;99426.96;4074198;86;21070;-90
2023/01/06 13:40:45;;;;;;;11.00;6.03;;;;;;;6.15;90.68;99431.04;4071414;86;21606;-90
2023/01/06 13:46:49;;;;;;;14.40;6.00;;;;;;;6.08;90.79;99413.14;4073004;84;21139;-92
2023/01/06 13:52:50;;;;;;;11.63;5.90;;;;;;;6.04;90.47;99413.59;4067400;86;21104;-90
2023/01/06 13:59:18;;;;;;;14.28;6.53;;;;;;;5.99;90.60;99411.08;4073816;86;21048;-90
2023/01/06 14:05:26;;;;;;;19.10;8.48;;;;;;;5.95;90.32;99390.34;4000318;86;21088;-91
2023/01/06 14:11:36;;;;;;;11.80;6.17;;;;;;;5.85;90.46;99379.88;4070971;86;21044;-91
2023/01/06 14:17:41;;;;;;;9.65;5.40;;;;;;;5.76;90.33;99389.42;4070784;86;21182;-89
2023/01/06 14:24:00;;;;;;;11.10;5.40;;;;;;;5.55;90.24;99389.22;4053612;86;21051;-89
2023/01/06 14:30:07;;;;;;;11.30;5.60;;;;;;;5.44;90.59;99377.97;4047376;86;21574;-90
2023/01/06 14:36:16;;;;;;;13.98;6.70;;;;;;;5.29;90.65;99358.22;4047717;86;21004;-89
2023/01/06 14:42:23;;;;;;;14.07;7.15;;;;;;;5.17;90.76;99346.50;4074738;86;21071;-89
2023/01/06 14:48:27;;;;;;;15.55;8.43;;;;;;;5.01;91.08;99341.42;3991401;87;21061;-90
2023/01/06 14:54:34;;;;;;;19.87;9.78;;;;;;;4.79;91.07;99356.86;3988742;88;21055;-90
2023/01/06 15:00:36;;;;;;;17.27;9.53;;;;;;;4.70;91.39;99353.96;4074969;86;21062;-89
2023/01/06 15:06:37;;;;;;;30.68;15.20;;;;;;;4.66;91.92;99363.89;4074800;86;21082;-89
2023/01/06 15:12:42;;;;;;;29.77;14.47;;;;;;;4.65;92.05;99337.91;4069312;86;20992;-90
2023/01/06 15:18:46;;;;;;;18.37;12.18;;;;;;;4.62;92.20;99337.17;4071190;86;20972;-90
2023/01/06 15:24:47;;;;;;;27.75;13.83;;;;;;;4.50;92.34;99339.25;4077880;86;21016;-88
2023/01/06 15:30:49;;;;;;;31.33;16.30;;;;;;;4.50;92.42;99330.31;4074116;86;21065;-89
2023/01/06 15:36:54;;;;;;;37.80;19.57;;;;;;;4.46;92.56;99325.32;4068859;86;21602;-89
2023/01/06 15:42:57;;;;;;;41.55;22.95;;;;;;;4.32;92.60;99328.81;4073696;86;21005;-89
2023/01/06 15:48:58;;;;;;;35.65;19.75;;;;;;;4.30;92.92;99330.50;4067051;86;21051;-90
2023/01/06 15:55:05;;;;;;;33.35;17.05;;;;;;;4.28;93.10;99334.63;4075591;86;21146;-90
2023/01/06 16:01:14;;;;;;;;;;;;;;;4.26;93.19;99336.31;4058806;86;21060;-89
2023/01/06 16:07:41;;;;;;;45.25;24.43;;;;;;;4.24;93.42;99326.93;4071546;86;20556;-89
2023/01/06 16:13:57;;;;;;;39.13;22.77;;;;;;;4.17;93.34;99329.34;4078112;86;21019;-90
2023/01/06 16:20:04;;;;;;;37.80;20.37;;;;;;;4.09;93.66;99316.06;4054078;86;21117;-89
2023/01/06 16:26:14;;;;;;;135.32;50.55;;;;;;;4.09;93.78;99307.94;4060775;86;21067;-89
2023/01/06 16:32:37;;;;;;;63.00;30.80;;;;;;;4.08;93.86;99295.52;4072455;86;21099;-89
2023/01/06 16:38:39;;;;;;;66.70;28.45;;;;;;;4.10;94.17;99296.55;4066280;86;21071;-89
2023/01/06 16:44:42;;;;;;;59.27;28.15;;;;;;;4.05;94.31;99298.88;4058532;86;21076;-89
2023/01/06 16:50:53;;;;;;;71.80;31.48;;;;;;;4.00;94.50;99290.92;4044349;87;21085;-88
2023/01/06 16:56:51;;;;;;;66.60;29.20;;;;;;;3.97;95.11;99287.52;4037928;87;21112;-89
2023/01/06 17:02:53;;;;;;;60.67;29.48;;;;;;;3.94;95.53;99281.94;4039585;86;21647;-89
2023/01/06 17:08:59;;;;;;;50.98;24.72;;;;;;;3.93;95.47;99289.84;4026580;87;21048;-89
2023/01/06 17:15:02;;;;;;;56.85;29.50;;;;;;;3.79;95.55;99272.42;3847920;87;9999857;-87
2023/01/06 17:21:16;;;;;;;53.38;27.07;;;;;;;3.71;95.63;99263.77;3905839;89;21146;-91
2023/01/06 17:27:25;;;;;;;55.78;28.92;;;;;;;3.72;96.21;99272.69;3959258;88;21058;-90
2023/01/06 17:33:28;;;;;;;47.90;26.07;;;;;;;3.73;96.60;99265.59;3923352;88;21184;-88
2023/01/06 17:39:40;;;;;;;42.30;22.85;;;;;;;3.72;97.08;99278.11;4044051;86;21027;-90
2023/01/06 17:45:41;;;;;;;47.03;24.80;;;;;;;3.73;97.70;99273.72;4051483;86;21114;-89
2023/01/06 17:51:43;;;;;;;49.35;26.45;;;;;;;3.80;97.88;99282.70;4004839;86;21071;-88
2023/01/06 17:57:45;;;;;;;72.32;35.05;;;;;;;3.79;98.05;99278.42;3996134;87;21032;-89
2023/01/06 18:03:47;;;;;;;48.45;26.20;;;;;;;3.72;97.85;99280.27;3995582;87;21040;-89
2023/01/06 18:09:51;;;;;;;66.80;36.25;;;;;;;3.71;98.59;99271.89;3979172;88;21094;-88
2023/01/06 18:15:58;;;;;;;59.85;32.55;;;;;;;3.70;98.75;99279.78;4004343;86;21074;-90
2023/01/06 18:22:10;;;;;;;76.97;37.53;;;;;;;3.71;99.18;99273.81;3997018;88;21039;-90
2023/01/06 18:28:18;;;;;;;91.02;44.27;;;;;;;3.73;99.73;99277.01;3982274;87;21079;-89
2023/01/06 18:34:39;;;;;;;84.85;44.10;;;;;;;3.73;100.00;99276.42;3994076;87;22120;-89
2023/01/06 18:40:43;;;;;;;78.57;40.85;;;;;;;3.76;100.00;99279.06;4029383;86;21753;-90
2023/01/06 18:46:45;;;;;;;99.87;51.50;;;;;;;3.76;100.00;99281.77;4017323;86;21123;-89
2023/01/06 18:52:52;;;;;;;82.57;43.85;;;;;;;3.74;100.00;99287.52;3990257;87;21112;-88
2023/01/06 18:58:56;;;;;;;95.17;46.30;;;;;;;3.74;100.00;99278.04;3993071;87;21152;-89
2023/01/06 19:04:58;;;;;;;101.18;50.10;;;;;;;3.79;100.00;99275.70;3994739;87;21012;-89
2023/01/06 19:11:02;;;;;;;106.55;54.00;;;;;;;3.71;100.00;99261.63;3980225;87;21157;-89
2023/01/06 19:17:26;;;;;;;101.20;52.10;;;;;;;3.77;100.00;99261.69;3997381;86;21111;-89
2023/01/06 19:23:29;;;;;;;87.85;48.30;;;;;;;3.78;100.00;99261.37;4020610;86;21067;-89
2023/01/06 19:29:33;;;;;;;102.15;51.92;;;;;;;3.83;100.00;99263.09;4018609;86;21092;-89
2023/01/06 19:35:36;;;;;;;93.35;51.23;;;;;;;3.80;100.00;99258.33;4034868;86;22115;-91
2023/01/06 19:41:37;;;;;;;98.50;53.98;;;;;;;3.83;100.00;99265.26;4021255;87;21073;-88
2023/01/06 19:47:41;;;;;;;100.62;53.13;;;;;;;3.83;100.00;99265.81;4005378;87;21084;-89
2023/01/06 19:53:52;;;;;;;105.40;54.73;;;;;;;3.88;100.00;99271.05;4002165;87;21461;-89
2023/01/06 19:59:58;;;;;;;107.15;60.38;;;;;;;3.93;100.00;99272.23;4000906;87;21572;-88
2023/01/06 20:05:59;;;;;;;118.82;59.65;;;;;;;3.93;100.00;99272.23;4004732;87;21043;-89
2023/01/06 20:12:02;;;;;;;93.97;51.70;;;;;;;3.97;100.00;99284.80;3986334;87;21004;-89
2023/01/06 20:18:04;;;;;;;107.63;55.50;;;;;;;3.96;100.00;99281.06;3999550;87;21906;-89
2023/01/06 20:24:08;;;;;;;104.50;58.75;;;;;;;3.97;100.00;99278.03;4001421;87;21091;-90
2023/01/06 20:30:11;;;;;;;92.37;54.33;;;;;;;4.01;100.00;99278.95;3998540;87;21005;-89
2023/01/06 20:36:16;;;;;;;104.50;58.00;;;;;;;4.04;100.00;99285.08;4030424;86;21043;-89
2023/01/06 20:42:19;;;;;;;141.25;76.67;;;;;;;4.04;100.00;99305.98;4047582;85;21087;-87
2023/01/06 20:48:21;;;;;;;121.90;70.87;;;;;;;4.07;100.00;99313.45;4047656;86;21064;-89
2023/01/06 20:54:26;;;;;;;143.02;81.08;;;;;;;4.03;100.00;99314.66;4043018;86;21104;-88
2023/01/06 21:00:27;;;;;;;130.52;70.70;;;;;;;4.04;100.00;99315.45;3995575;86;21079;-88
2023/01/06 21:06:29;;;;;;;128.47;74.32;;;;;;;4.04;100.00;99312.17;4043121;86;21490;-88
2023/01/06 21:12:30;;;;;;;126.78;70.90;;;;;;;4.01;100.00;99316.88;4044981;86;21032;-88
2023/01/06 21:18:34;;;;;;;113.85;65.75;;;;;;;4.05;100.00;99307.55;4047667;86;21025;-89
2023/01/06 21:24:35;;;;;;;108.47;58.55;;;;;;;4.12;100.00;99315.99;4045770;86;22031;-88
2023/01/06 21:30:37;;;;;;;108.80;57.90;;;;;;;4.20;100.00;99315.94;4048160;86;21011;-89
2023/01/06 21:36:39;;;;;;;101.82;57.48;;;;;;;4.33;100.00;99316.84;4013883;86;21823;-89
2023/01/06 21:49:00;;;;;;;93.58;53.08;;;;;;;4.56;100.00;99342.55;3926809;89;21574;-88
2023/01/06 21:55:02;;;;;;;87.15;49.15;;;;;;;4.63;100.00;99346.37;3912616;89;21594;-88
2023/01/06 22:01:04;;;;;;;86.90;49.35;;;;;;;4.80;100.00;99349.53;3933194;88;20999;-89
2023/01/06 22:07:08;;;;;;;83.25;44.25;;;;;;;5.04;100.00;99348.34;3897485;89;21652;-89
2023/01/06 22:13:14;;;;;;;81.08;45.23;;;;;;;5.14;100.00;99358.02;4006452;87;21160;-87
2023/01/06 22:19:16;;;;;;;85.17;44.57;;;;;;;5.29;100.00;99356.86;3994933;87;21087;-89
2023/01/06 22:25:18;;;;;;;86.75;47.60;;;;;;;5.40;100.00;99369.47;3997194;87;21100;-89
2023/01/06 22:31:20;;;;;;;71.75;40.83;;;;;;;5.44;100.00;99378.53;3994526;87;21047;-88
2023/01/06 22:37:21;;;;;;;74.45;39.95;;;;;;;5.54;100.00;99375.42;3998640;87;21041;-88
2023/01/06 22:43:22;;;;;;;70.42;38.88;;;;;;;5.63;100.00;99370.15;3991713;87;21060;-89
2023/01/06 22:49:25;;;;;;;68.10;36.33;;;;;;;5.73;100.00;99367.00;3993893;87;21099;-87
2023/01/06 22:55:27;;;;;;;60.55;32.00;;;;;;;5.79;100.00;99374.40;3998627;86;21596;-88
2023/01/06 23:01:30;;;;;;;59.00;32.83;;;;;;;5.84;100.00;99366.85;3992566;87;21119;-88
2023/01/06 23:07:38;;;;;;;45.33;26.40;;;;;;;5.94;100.00;99366.44;3992199;87;21076;-90
2023/01/06 23:13:42;;;;;;;45.80;25.77;;;;;;;6.00;100.00;99369.73;3993215;87;22085;-88
2023/01/06 23:19:46;;;;;;;40.12;23.87;;;;;;;6.01;100.00;99382.20;3994725;87;21075;-87
2023/01/06 23:25:48;;;;;;;36.80;22.75;;;;;;;6.06;100.00;99377.92;3994476;87;21099;-88
2023/01/06 23:31:50;;;;;;;35.73;19.52;;;;;;;6.20;100.00;99377.83;3992568;87;21599;-88
2023/01/06 23:37:51;;;;;;;29.70;18.20;;;;;;;6.25;100.00;99378.17;3954961;87;21923;-88
2023/01/06 23:43:54;;;;;;;34.50;19.15;;;;;;;6.29;100.00;99379.10;3935882;89;21589;-88
2023/01/06 23:49:56;;;;;;;29.55;16.95;;;;;;;6.44;100.00;99388.54;3931825;89;21092;-88
2023/01/06 23:56:00;;;;;;;32.60;18.35;;;;;;;6.45;100.00;99395.55;3933697;88;21543;-89
